x

Destruction Island, Wa (desw1) Weather Station

6:00 - Sat 27th May 2017 All times are PDT. -7 hours from GMT.

  • Wind
    6mph, 7mph gusts
  • Ar Temp 49°f
  • Sea Pressure 1017.9mb
  • Destruction Island, Wa
  • Destruction Island, Wa

More Historic Weather Station data

Upgrade to MSW Pro to gain access to the past 30 days of data for over 8000 Wavebouys and Weather Stations around the globe.

Join Pro

Comparision Forecast

View Surf forecast
   
Sáb 05/27 6:00 6 7 mph 1017.9mb 49f
5:00 8 9 mph 1017.5mb 50f
4:00 11 13 mph 1017.3mb 52f
3:00 8 8 mph 1017.1mb 52f
2:00 11 13 mph 1017.2mb 52f
1:00 13 15 mph 1017.1mb 53f
12:00 14 15 mph 1017mb 53f
Sex 05/26 11:00 14 14 mph 1016.9mb 53f
10:00 11 11 mph 1016.8mb 53f
9:00 8 8 mph 1016.4mb 54f
8:00 7 8 mph 1016.5mb 55f
7:00 9 10 mph 1016.5mb 56f
6:00 7 8 mph 1016.5mb 56f
5:00 5 8 mph 1016.5mb 58f
4:00 5 7 mph 1016.4mb 57f
3:00  -  1 mph 1016.4mb 56f
2:00 6 7 mph 1016.3mb 53f
1:00 6 6 mph 1016.1mb 52f
12:00 5 5 mph 1015.9mb 52f
11:00 3 3 mph 1015.6mb 51f
10:00 3 3 mph 1015.5mb 53f
9:00  -  1 mph 1014.9mb 54f
8:00  -  0 mph 1014.4mb 54f
7:00 3 3 mph 1014.1mb 52f
6:00 2 2 mph 1013.8mb 50f
5:00 3 3 mph 1013.9mb 50f
4:00 3 5 mph 1013.8mb 51f
3:00 2 2 mph 1013.7mb 50f
2:00 1 2 mph 1013.5mb 50f
1:00 5 5 mph 1013.3mb 51f
12:00 3 3 mph 1012.9mb 50f
Qui 05/25 11:00 6 7 mph 1012.8mb 50f
10:00 15 15 mph 1012.5mb 51f
9:00 15 16 mph 1011.9mb 51f
8:00 18 20 mph 1011.9mb 52f
7:00 9 10 mph 1011.8mb 54f
6:00 8 9 mph 1012mb 53f
5:00 7 8 mph 1012.4mb 55f
4:00 7 8 mph 1012.7mb 53f
3:00 3 5 mph 1013.1mb 53f
2:00 6 6 mph 1013.2mb 54f
1:00 3 5 mph 1013.3mb 54f
12:00 5 7 mph 1013.4mb 53f
11:00 6 7 mph 1013.5mb 53f
10:00 7 7 mph 1013.5mb 50f
9:00 6 7 mph 1013.5mb 49f
8:00 5 5 mph 1013.3mb 48f
7:00 1 2 mph 1013.1mb 47f
6:00 2 2 mph 1013.1mb 46f
5:00  -  0 mph 1013.3mb 47f
4:00 5 5 mph 1013.3mb 47f
3:00 3 5 mph 1013.6mb 47f
2:00 6 6 mph 1013.9mb 47f
1:00  -  2 mph 1014.1mb 48f
12:00  -  0 mph 1014.4mb 49f
Qua 05/24 11:00 5 5 mph 1014.8mb 50f
10:00 8 8 mph 1014.6mb 50f
9:00 10 10 mph 1014.5mb 51f
8:00 13 13 mph 1014.6mb 51f
7:00 16 18 mph 1014.7mb 52f
6:00 14 15 mph 1015.2mb 52f
5:00 17 18 mph 1015.6mb 51f
4:00 18 20 mph 1015.9mb 51f
3:00 16 17 mph 1016.7mb 51f
2:00 17 18 mph 1016.9mb 51f
1:00 13 14 mph 1017.7mb 52f
12:00 14 15 mph 1018mb 52f
11:00 13 14 mph 1018.8mb 51f
10:00 11 13 mph 1018.9mb 51f
9:00 13 15 mph 1019.2mb 50f
8:00 21 23 mph 1019.1mb 50f
7:00 13 14 mph 1019.1mb 50f
6:00 23 24 mph 1018.9mb 50f
5:00 18 22 mph 1019.5mb 50f
4:00 18 22 mph 1019.9mb 50f
3:00 20 22 mph 1020.2mb 50f
2:00 22 24 mph 1020.6mb 50f
1:00 23 25 mph 1020.8mb 50f
12:00 23 25 mph 1021.2mb 51f
Ter 05/23 11:00 22 25 mph 1021.4mb 51f
10:00 25 28 mph 1020.9mb 51f
9:00 30 32 mph 1020.5mb 51f
8:00 24 30 mph 1020.5mb 52f
7:00 28 33 mph 1020.7mb 52f
6:00 21 22 mph 1020.7mb 52f
5:00 25 28 mph 1020.4mb 53f
4:00 20 22 mph 1020.8mb 53f
3:00 18 21 mph 1020.7mb 53f